sensor_id;sensor_type;location;lat;lon;timestamp;temperature;humidity
13742;DHT22;8461;52.356;10.704;2022-12-29T00:01:47;9.30;99.90
13742;DHT22;8461;52.356;10.704;2022-12-29T00:04:14;9.30;99.90
13742;DHT22;8461;52.356;10.704;2022-12-29T00:06:40;9.30;99.90
13742;DHT22;8461;52.356;10.704;2022-12-29T00:09:05;9.40;99.90
13742;DHT22;8461;52.356;10.704;2022-12-29T00:11:31;9.40;99.90
13742;DHT22;8461;52.356;10.704;2022-12-29T00:13:57;9.50;99.90
13742;DHT22;8461;52.356;10.704;2022-12-29T00:16:43;9.40;99.90
13742;DHT22;8461;52.356;10.704;2022-12-29T00:19:10;9.40;99.90
13742;DHT22;8461;52.356;10.704;2022-12-29T00:21:57;9.40;99.90
13742;DHT22;8461;52.356;10.704;2022-12-29T00:24:41;9.50;99.90
13742;DHT22;8461;52.356;10.704;2022-12-29T00:27:18;9.50;99.90
13742;DHT22;8461;52.356;10.704;2022-12-29T00:30:07;9.40;99.90
13742;DHT22;8461;52.356;10.704;2022-12-29T00:32:52;9.40;99.90
13742;DHT22;8461;52.356;10.704;2022-12-29T00:35:39;9.50;99.90
13742;DHT22;8461;52.356;10.704;2022-12-29T00:38:07;9.50;99.90
13742;DHT22;8461;52.356;10.704;2022-12-29T00:40:52;9.50;99.90
13742;DHT22;8461;52.356;10.704;2022-12-29T00:43:36;9.40;99.90
13742;DHT22;8461;52.356;10.704;2022-12-29T00:46:20;9.40;99.90
13742;DHT22;8461;52.356;10.704;2022-12-29T00:48:45;9.50;99.90
13742;DHT22;8461;52.356;10.704;2022-12-29T00:51:30;9.50;99.90
13742;DHT22;8461;52.356;10.704;2022-12-29T00:53:55;9.50;99.90
13742;DHT22;8461;52.356;10.704;2022-12-29T00:56:21;9.50;99.90
13742;DHT22;8461;52.356;10.704;2022-12-29T00:58:46;9.50;99.90
13742;DHT22;8461;52.356;10.704;2022-12-29T01:01:12;9.50;99.90
13742;DHT22;8461;52.356;10.704;2022-12-29T01:03:38;9.50;99.90
13742;DHT22;8461;52.356;10.704;2022-12-29T01:06:06;9.50;99.90
13742;DHT22;8461;52.356;10.704;2022-12-29T01:08:32;9.50;99.90
13742;DHT22;8461;52.356;10.704;2022-12-29T01:10:59;9.50;99.90
13742;DHT22;8461;52.356;10.704;2022-12-29T01:13:25;9.60;99.90
13742;DHT22;8461;52.356;10.704;2022-12-29T01:15:51;9.60;99.90
13742;DHT22;8461;52.356;10.704;2022-12-29T01:18:17;9.60;99.90
13742;DHT22;8461;52.356;10.704;2022-12-29T01:20:42;9.60;99.90
13742;DHT22;8461;52.356;10.704;2022-12-29T01:23:08;9.60;99.90
13742;DHT22;8461;52.356;10.704;2022-12-29T01:25:33;9.60;99.90
13742;DHT22;8461;52.356;10.704;2022-12-29T01:27:59;9.60;99.90
13742;DHT22;8461;52.356;10.704;2022-12-29T01:30:25;9.60;99.90
13742;DHT22;8461;52.356;10.704;2022-12-29T01:32:50;9.60;99.90
13742;DHT22;8461;52.356;10.704;2022-12-29T01:35:16;9.60;99.90
13742;DHT22;8461;52.356;10.704;2022-12-29T01:37:41;9.60;99.90
13742;DHT22;8461;52.356;10.704;2022-12-29T01:40:07;9.70;99.90
13742;DHT22;8461;52.356;10.704;2022-12-29T01:42:33;9.70;99.90
13742;DHT22;8461;52.356;10.704;2022-12-29T01:45:15;9.70;99.90
13742;DHT22;8461;52.356;10.704;2022-12-29T01:47:54;9.60;99.90
13742;DHT22;8461;52.356;10.704;2022-12-29T01:50:37;9.60;99.90
13742;DHT22;8461;52.356;10.704;2022-12-29T01:53:18;9.60;99.90
13742;DHT22;8461;52.356;10.704;2022-12-29T01:55:52;9.60;99.90
13742;DHT22;8461;52.356;10.704;2022-12-29T01:58:22;9.50;99.90
13742;DHT22;8461;52.356;10.704;2022-12-29T02:00:48;9.50;99.90
13742;DHT22;8461;52.356;10.704;2022-12-29T02:03:14;9.50;99.90
13742;DHT22;8461;52.356;10.704;2022-12-29T02:06:00;9.60;99.90
13742;DHT22;8461;52.356;10.704;2022-12-29T02:08:29;9.60;99.90
13742;DHT22;8461;52.356;10.704;2022-12-29T02:10:56;9.50;99.90
13742;DHT22;8461;52.356;10.704;2022-12-29T02:13:24;9.40;99.90
13742;DHT22;8461;52.356;10.704;2022-12-29T02:18:48;9.40;99.90
13742;DHT22;8461;52.356;10.704;2022-12-29T02:22:23;9.40;99.90
13742;DHT22;8461;52.356;10.704;2022-12-29T02:30:27;9.20;99.90
13742;DHT22;8461;52.356;10.704;2022-12-29T02:41:39;9.10;99.90
13742;DHT22;8461;52.356;10.704;2022-12-29T02:44:15;9.10;99.90
13742;DHT22;8461;52.356;10.704;2022-12-29T02:46:53;9.20;99.90
13742;DHT22;8461;52.356;10.704;2022-12-29T02:49:27;9.30;99.90
13742;DHT22;8461;52.356;10.704;2022-12-29T02:54:28;9.30;99.90
13742;DHT22;8461;52.356;10.704;2022-12-29T02:57:12;9.30;99.90
13742;DHT22;8461;52.356;10.704;2022-12-29T02:59:38;9.30;99.90
13742;DHT22;8461;52.356;10.704;2022-12-29T03:13:32;9.50;99.90
13742;DHT22;8461;52.356;10.704;2022-12-29T03:16:28;9.60;99.90
13742;DHT22;8461;52.356;10.704;2022-12-29T03:19:00;9.60;99.90
13742;DHT22;8461;52.356;10.704;2022-12-29T03:21:44;9.70;99.90
13742;DHT22;8461;52.356;10.704;2022-12-29T03:24:33;9.70;99.90
13742;DHT22;8461;52.356;10.704;2022-12-29T03:27:03;9.70;99.90
13742;DHT22;8461;52.356;10.704;2022-12-29T03:29:33;9.70;99.90
13742;DHT22;8461;52.356;10.704;2022-12-29T03:32:01;9.80;99.90
13742;DHT22;8461;52.356;10.704;2022-12-29T03:34:28;9.80;99.90
13742;DHT22;8461;52.356;10.704;2022-12-29T03:37:10;9.90;99.90
13742;DHT22;8461;52.356;10.704;2022-12-29T03:39:36;9.90;99.90
13742;DHT22;8461;52.356;10.704;2022-12-29T03:42:05;9.90;99.90
13742;DHT22;8461;52.356;10.704;2022-12-29T03:44:37;9.90;99.90
13742;DHT22;8461;52.356;10.704;2022-12-29T03:47:05;9.90;99.90
13742;DHT22;8461;52.356;10.704;2022-12-29T03:49:31;9.90;99.90
13742;DHT22;8461;52.356;10.704;2022-12-29T03:51:56;9.90;99.90
13742;DHT22;8461;52.356;10.704;2022-12-29T03:54:22;10.00;99.90
13742;DHT22;8461;52.356;10.704;2022-12-29T03:56:48;10.00;99.90
13742;DHT22;8461;52.356;10.704;2022-12-29T03:59:14;10.20;99.90
13742;DHT22;8461;52.356;10.704;2022-12-29T04:01:39;10.30;99.90
13742;DHT22;8461;52.356;10.704;2022-12-29T04:04:05;10.30;99.90
13742;DHT22;8461;52.356;10.704;2022-12-29T04:06:30;10.40;99.90
13742;DHT22;8461;52.356;10.704;2022-12-29T04:08:56;10.40;99.90
13742;DHT22;8461;52.356;10.704;2022-12-29T04:11:22;10.40;99.90
13742;DHT22;8461;52.356;10.704;2022-12-29T04:13:47;10.40;99.90
13742;DHT22;8461;52.356;10.704;2022-12-29T04:16:13;10.40;99.90
13742;DHT22;8461;52.356;10.704;2022-12-29T04:18:39;10.40;99.90
13742;DHT22;8461;52.356;10.704;2022-12-29T04:21:04;10.40;99.90
13742;DHT22;8461;52.356;10.704;2022-12-29T04:23:33;10.40;99.90
13742;DHT22;8461;52.356;10.704;2022-12-29T04:25:59;10.40;99.90
13742;DHT22;8461;52.356;10.704;2022-12-29T04:28:25;10.30;99.90
13742;DHT22;8461;52.356;10.704;2022-12-29T04:30:51;10.30;99.90
13742;DHT22;8461;52.356;10.704;2022-12-29T04:33:17;10.40;99.90
13742;DHT22;8461;52.356;10.704;2022-12-29T04:35:43;10.30;99.90
13742;DHT22;8461;52.356;10.704;2022-12-29T04:38:09;10.30;99.90
13742;DHT22;8461;52.356;10.704;2022-12-29T04:40:35;10.30;99.90
13742;DHT22;8461;52.356;10.704;2022-12-29T04:43:00;10.20;99.90
13742;DHT22;8461;52.356;10.704;2022-12-29T04:45:26;10.20;99.90
13742;DHT22;8461;52.356;10.704;2022-12-29T04:47:51;10.20;99.90
13742;DHT22;8461;52.356;10.704;2022-12-29T04:50:17;10.20;99.90
13742;DHT22;8461;52.356;10.704;2022-12-29T04:52:43;10.30;99.90
13742;DHT22;8461;52.356;10.704;2022-12-29T04:55:08;10.30;99.90
13742;DHT22;8461;52.356;10.704;2022-12-29T04:57:34;10.40;99.90
13742;DHT22;8461;52.356;10.704;2022-12-29T05:00:00;10.50;99.90
13742;DHT22;8461;52.356;10.704;2022-12-29T05:02:25;10.50;99.90
13742;DHT22;8461;52.356;10.704;2022-12-29T05:04:51;10.50;99.90
13742;DHT22;8461;52.356;10.704;2022-12-29T05:07:16;10.50;99.90
13742;DHT22;8461;52.356;10.704;2022-12-29T05:09:42;10.50;99.90
13742;DHT22;8461;52.356;10.704;2022-12-29T05:12:07;10.50;99.90
13742;DHT22;8461;52.356;10.704;2022-12-29T05:14:33;10.50;99.90
13742;DHT22;8461;52.356;10.704;2022-12-29T05:16:59;10.50;99.90
13742;DHT22;8461;52.356;10.704;2022-12-29T05:19:24;10.50;99.90
13742;DHT22;8461;52.356;10.704;2022-12-29T05:21:50;10.50;99.90
13742;DHT22;8461;52.356;10.704;2022-12-29T05:24:15;10.50;99.90
13742;DHT22;8461;52.356;10.704;2022-12-29T05:26:41;10.50;99.90
13742;DHT22;8461;52.356;10.704;2022-12-29T05:29:07;10.50;99.90
13742;DHT22;8461;52.356;10.704;2022-12-29T05:31:33;10.50;99.90
13742;DHT22;8461;52.356;10.704;2022-12-29T05:34:01;10.50;99.90
13742;DHT22;8461;52.356;10.704;2022-12-29T05:36:26;10.50;99.90
13742;DHT22;8461;52.356;10.704;2022-12-29T05:38:52;10.40;99.90
13742;DHT22;8461;52.356;10.704;2022-12-29T05:41:17;10.30;99.90
13742;DHT22;8461;52.356;10.704;2022-12-29T05:43:43;10.30;99.90
13742;DHT22;8461;52.356;10.704;2022-12-29T05:46:08;10.20;99.90
13742;DHT22;8461;52.356;10.704;2022-12-29T05:48:34;10.20;99.90
13742;DHT22;8461;52.356;10.704;2022-12-29T05:50:59;10.30;99.90
13742;DHT22;8461;52.356;10.704;2022-12-29T05:53:25;10.30;99.90
13742;DHT22;8461;52.356;10.704;2022-12-29T05:55:50;10.40;99.90
13742;DHT22;8461;52.356;10.704;2022-12-29T05:58:17;10.40;99.90
13742;DHT22;8461;52.356;10.704;2022-12-29T06:00:43;10.40;99.90
13742;DHT22;8461;52.356;10.704;2022-12-29T06:03:08;10.40;99.90
13742;DHT22;8461;52.356;10.704;2022-12-29T06:05:34;10.40;99.90
13742;DHT22;8461;52.356;10.704;2022-12-29T06:07:59;10.40;99.90
13742;DHT22;8461;52.356;10.704;2022-12-29T06:10:25;10.50;99.90
13742;DHT22;8461;52.356;10.704;2022-12-29T06:12:51;10.50;99.90
13742;DHT22;8461;52.356;10.704;2022-12-29T06:15:17;10.50;99.90
13742;DHT22;8461;52.356;10.704;2022-12-29T06:17:42;10.50;99.90
13742;DHT22;8461;52.356;10.704;2022-12-29T06:20:09;10.60;99.90
13742;DHT22;8461;52.356;10.704;2022-12-29T06:22:35;10.50;99.90
13742;DHT22;8461;52.356;10.704;2022-12-29T06:25:01;10.60;99.90
13742;DHT22;8461;52.356;10.704;2022-12-29T06:27:27;10.60;99.90
13742;DHT22;8461;52.356;10.704;2022-12-29T06:29:52;10.50;99.90
13742;DHT22;8461;52.356;10.704;2022-12-29T06:32:18;10.60;99.90
13742;DHT22;8461;52.356;10.704;2022-12-29T06:34:43;10.60;99.90
13742;DHT22;8461;52.356;10.704;2022-12-29T06:37:10;10.50;99.90
13742;DHT22;8461;52.356;10.704;2022-12-29T06:39:35;10.50;99.90
13742;DHT22;8461;52.356;10.704;2022-12-29T06:42:01;10.50;99.90
13742;DHT22;8461;52.356;10.704;2022-12-29T06:44:26;10.60;99.90
13742;DHT22;8461;52.356;10.704;2022-12-29T06:46:52;10.60;99.90
13742;DHT22;8461;52.356;10.704;2022-12-29T06:49:18;10.70;99.90
13742;DHT22;8461;52.356;10.704;2022-12-29T06:51:43;10.70;99.90
13742;DHT22;8461;52.356;10.704;2022-12-29T06:54:09;10.70;99.90
13742;DHT22;8461;52.356;10.704;2022-12-29T06:56:34;10.70;99.90
13742;DHT22;8461;52.356;10.704;2022-12-29T06:59:00;10.80;99.90
13742;DHT22;8461;52.356;10.704;2022-12-29T07:01:26;10.90;99.90
13742;DHT22;8461;52.356;10.704;2022-12-29T07:03:52;10.80;99.90
13742;DHT22;8461;52.356;10.704;2022-12-29T07:06:17;10.80;99.90
13742;DHT22;8461;52.356;10.704;2022-12-29T07:08:43;10.80;99.90
13742;DHT22;8461;52.356;10.704;2022-12-29T07:11:09;11.00;99.90
13742;DHT22;8461;52.356;10.704;2022-12-29T07:13:34;11.00;99.90
13742;DHT22;8461;52.356;10.704;2022-12-29T07:16:05;11.00;99.90
13742;DHT22;8461;52.356;10.704;2022-12-29T07:18:31;11.10;99.90
13742;DHT22;8461;52.356;10.704;2022-12-29T07:20:56;11.10;99.90
13742;DHT22;8461;52.356;10.704;2022-12-29T07:23:22;11.00;99.90
13742;DHT22;8461;52.356;10.704;2022-12-29T07:25:47;11.10;99.90
13742;DHT22;8461;52.356;10.704;2022-12-29T07:28:13;11.10;99.90
13742;DHT22;8461;52.356;10.704;2022-12-29T07:30:38;11.10;99.90
13742;DHT22;8461;52.356;10.704;2022-12-29T07:33:04;11.10;99.90
13742;DHT22;8461;52.356;10.704;2022-12-29T07:35:30;11.10;99.90
13742;DHT22;8461;52.356;10.704;2022-12-29T07:37:55;11.10;99.90
13742;DHT22;8461;52.356;10.704;2022-12-29T07:40:21;11.10;99.90
13742;DHT22;8461;52.356;10.704;2022-12-29T07:42:47;11.10;99.90
13742;DHT22;8461;52.356;10.704;2022-12-29T07:45:12;11.10;99.90
13742;DHT22;8461;52.356;10.704;2022-12-29T07:47:38;11.10;99.90
13742;DHT22;8461;52.356;10.704;2022-12-29T07:50:04;11.10;99.90
13742;DHT22;8461;52.356;10.704;2022-12-29T07:52:30;11.10;99.90
13742;DHT22;8461;52.356;10.704;2022-12-29T07:54:55;11.10;99.90
13742;DHT22;8461;52.356;10.704;2022-12-29T07:57:21;11.10;99.90
13742;DHT22;8461;52.356;10.704;2022-12-29T07:59:46;11.00;99.90
13742;DHT22;8461;52.356;10.704;2022-12-29T08:02:12;11.10;99.90
13742;DHT22;8461;52.356;10.704;2022-12-29T08:04:37;11.10;99.90
13742;DHT22;8461;52.356;10.704;2022-12-29T08:07:03;11.10;99.90
13742;DHT22;8461;52.356;10.704;2022-12-29T08:09:29;11.20;99.90
13742;DHT22;8461;52.356;10.704;2022-12-29T08:11:54;11.30;99.90
13742;DHT22;8461;52.356;10.704;2022-12-29T08:14:20;11.30;99.90
13742;DHT22;8461;52.356;10.704;2022-12-29T08:16:46;11.30;99.90
13742;DHT22;8461;52.356;10.704;2022-12-29T08:19:12;11.30;99.90
13742;DHT22;8461;52.356;10.704;2022-12-29T08:21:38;11.40;99.90
13742;DHT22;8461;52.356;10.704;2022-12-29T08:24:05;11.40;99.90
13742;DHT22;8461;52.356;10.704;2022-12-29T08:26:31;11.40;99.90
13742;DHT22;8461;52.356;10.704;2022-12-29T08:28:56;11.30;99.90
13742;DHT22;8461;52.356;10.704;2022-12-29T08:31:23;11.30;99.90
13742;DHT22;8461;52.356;10.704;2022-12-29T08:33:49;11.30;99.90
13742;DHT22;8461;52.356;10.704;2022-12-29T08:36:14;11.30;99.90
13742;DHT22;8461;52.356;10.704;2022-12-29T08:38:40;11.30;99.90
13742;DHT22;8461;52.356;10.704;2022-12-29T08:41:06;11.30;99.90
13742;DHT22;8461;52.356;10.704;2022-12-29T08:43:31;11.30;99.90
13742;DHT22;8461;52.356;10.704;2022-12-29T08:45:58;11.20;99.90
13742;DHT22;8461;52.356;10.704;2022-12-29T08:48:25;11.10;99.90
13742;DHT22;8461;52.356;10.704;2022-12-29T08:50:50;11.00;99.90
13742;DHT22;8461;52.356;10.704;2022-12-29T08:53:16;10.80;99.90
13742;DHT22;8461;52.356;10.704;2022-12-29T08:55:45;10.60;99.90
13742;DHT22;8461;52.356;10.704;2022-12-29T08:58:11;10.50;99.90
13742;DHT22;8461;52.356;10.704;2022-12-29T09:00:40;10.40;99.90
13742;DHT22;8461;52.356;10.704;2022-12-29T09:03:06;10.30;99.90
13742;DHT22;8461;52.356;10.704;2022-12-29T09:05:31;10.30;99.90
13742;DHT22;8461;52.356;10.704;2022-12-29T09:07:57;10.20;99.90
13742;DHT22;8461;52.356;10.704;2022-12-29T09:10:22;10.20;99.90
13742;DHT22;8461;52.356;10.704;2022-12-29T09:12:48;10.20;99.90
13742;DHT22;8461;52.356;10.704;2022-12-29T09:15:14;10.20;99.90
13742;DHT22;8461;52.356;10.704;2022-12-29T09:17:41;10.30;99.90
13742;DHT22;8461;52.356;10.704;2022-12-29T09:20:16;10.30;99.90
13742;DHT22;8461;52.356;10.704;2022-12-29T09:22:42;10.30;99.90
13742;DHT22;8461;52.356;10.704;2022-12-29T09:25:09;10.40;99.90
13742;DHT22;8461;52.356;10.704;2022-12-29T09:27:35;10.40;99.90
13742;DHT22;8461;52.356;10.704;2022-12-29T09:30:02;10.50;99.90
13742;DHT22;8461;52.356;10.704;2022-12-29T09:32:28;10.50;99.90
13742;DHT22;8461;52.356;10.704;2022-12-29T09:34:53;10.50;99.90
13742;DHT22;8461;52.356;10.704;2022-12-29T09:37:19;10.50;99.90
13742;DHT22;8461;52.356;10.704;2022-12-29T09:39:44;10.50;99.90
13742;DHT22;8461;52.356;10.704;2022-12-29T09:42:23;10.50;99.90
13742;DHT22;8461;52.356;10.704;2022-12-29T09:45:15;10.50;99.90
13742;DHT22;8461;52.356;10.704;2022-12-29T09:47:48;10.10;99.90
13742;DHT22;8461;52.356;10.704;2022-12-29T09:53:03;9.60;99.90
13742;DHT22;8461;52.356;10.704;2022-12-29T09:55:42;9.60;99.90
13742;DHT22;8461;52.356;10.704;2022-12-29T09:58:36;9.50;99.90
13742;DHT22;8461;52.356;10.704;2022-12-29T10:01:13;9.50;99.90
13742;DHT22;8461;52.356;10.704;2022-12-29T10:03:51;9.50;99.90
13742;DHT22;8461;52.356;10.704;2022-12-29T10:09:13;9.50;99.90
13742;DHT22;8461;52.356;10.704;2022-12-29T10:12:06;9.50;99.90
13742;DHT22;8461;52.356;10.704;2022-12-29T10:14:45;9.50;99.90
13742;DHT22;8461;52.356;10.704;2022-12-29T10:25:57;9.50;99.90
13742;DHT22;8461;52.356;10.704;2022-12-29T10:31:18;9.50;99.90
13742;DHT22;8461;52.356;10.704;2022-12-29T10:33:49;9.60;99.90
13742;DHT22;8461;52.356;10.704;2022-12-29T10:36:27;9.70;99.90
13742;DHT22;8461;52.356;10.704;2022-12-29T10:39:06;9.80;99.90
13742;DHT22;8461;52.356;10.704;2022-12-29T10:41:41;10.00;99.90
13742;DHT22;8461;52.356;10.704;2022-12-29T10:44:13;10.20;99.90
13742;DHT22;8461;52.356;10.704;2022-12-29T10:46:40;10.50;99.90
13742;DHT22;8461;52.356;10.704;2022-12-29T10:49:08;10.60;99.90
13742;DHT22;8461;52.356;10.704;2022-12-29T10:51:39;10.40;99.90
13742;DHT22;8461;52.356;10.704;2022-12-29T10:54:15;10.30;99.90
13742;DHT22;8461;52.356;10.704;2022-12-29T10:56:42;10.30;99.90
13742;DHT22;8461;52.356;10.704;2022-12-29T10:59:23;10.30;99.90
13742;DHT22;8461;52.356;10.704;2022-12-29T11:02:00;10.20;99.90
13742;DHT22;8461;52.356;10.704;2022-12-29T11:04:40;10.20;99.90
13742;DHT22;8461;52.356;10.704;2022-12-29T11:07:08;10.20;99.90
13742;DHT22;8461;52.356;10.704;2022-12-29T11:09:36;10.30;99.90
13742;DHT22;8461;52.356;10.704;2022-12-29T11:14:46;10.70;99.90
13742;DHT22;8461;52.356;10.704;2022-12-29T11:17:16;10.90;99.90
13742;DHT22;8461;52.356;10.704;2022-12-29T11:19:42;11.10;99.90
13742;DHT22;8461;52.356;10.704;2022-12-29T11:22:27;11.10;99.90
13742;DHT22;8461;52.356;10.704;2022-12-29T11:24:54;11.00;99.90
13742;DHT22;8461;52.356;10.704;2022-12-29T11:27:23;11.00;99.90
13742;DHT22;8461;52.356;10.704;2022-12-29T11:29:50;11.00;99.90
13742;DHT22;8461;52.356;10.704;2022-12-29T11:32:24;11.00;99.90
13742;DHT22;8461;52.356;10.704;2022-12-29T11:34:50;10.90;99.90
13742;DHT22;8461;52.356;10.704;2022-12-29T11:37:29;10.80;99.90
13742;DHT22;8461;52.356;10.704;2022-12-29T11:40:02;10.90;99.90
13742;DHT22;8461;52.356;10.704;2022-12-29T11:42:40;10.90;99.90
13742;DHT22;8461;52.356;10.704;2022-12-29T11:47:41;10.90;99.90
13742;DHT22;8461;52.356;10.704;2022-12-29T11:50:15;10.90;99.90
13742;DHT22;8461;52.356;10.704;2022-12-29T11:52:42;10.90;99.90
13742;DHT22;8461;52.356;10.704;2022-12-29T11:55:23;10.90;99.90
13742;DHT22;8461;52.356;10.704;2022-12-29T11:57:51;10.90;99.90
13742;DHT22;8461;52.356;10.704;2022-12-29T12:00:20;11.00;99.90
13742;DHT22;8461;52.356;10.704;2022-12-29T12:03:04;11.00;99.90
13742;DHT22;8461;52.356;10.704;2022-12-29T12:05:31;10.90;99.90
13742;DHT22;8461;52.356;10.704;2022-12-29T12:08:10;10.90;99.90
13742;DHT22;8461;52.356;10.704;2022-12-29T12:10:57;10.80;99.90
13742;DHT22;8461;52.356;10.704;2022-12-29T12:13:32;10.70;99.90
13742;DHT22;8461;52.356;10.704;2022-12-29T12:16:08;10.50;99.90
13742;DHT22;8461;52.356;10.704;2022-12-29T12:18:45;10.20;99.90
13742;DHT22;8461;52.356;10.704;2022-12-29T12:27:01;10.10;99.90
13742;DHT22;8461;52.356;10.704;2022-12-29T12:29:56;10.20;99.90
13742;DHT22;8461;52.356;10.704;2022-12-29T12:41:20;10.20;99.90
13742;DHT22;8461;52.356;10.704;2022-12-29T12:44:10;10.20;99.90
13742;DHT22;8461;52.356;10.704;2022-12-29T12:49:34;10.50;99.90
13742;DHT22;8461;52.356;10.704;2022-12-29T12:52:33;10.50;99.90
13742;DHT22;8461;52.356;10.704;2022-12-29T13:00:27;10.40;99.90
13742;DHT22;8461;52.356;10.704;2022-12-29T13:03:22;10.30;99.90
13742;DHT22;8461;52.356;10.704;2022-12-29T13:06:43;10.30;99.90
13742;DHT22;8461;52.356;10.704;2022-12-29T13:12:29;10.40;99.90
13742;DHT22;8461;52.356;10.704;2022-12-29T13:18:25;10.40;99.90
13742;DHT22;8461;52.356;10.704;2022-12-29T13:21:19;10.40;99.90
13742;DHT22;8461;52.356;10.704;2022-12-29T13:24:45;10.40;99.90
13742;DHT22;8461;52.356;10.704;2022-12-29T13:26:57;10.40;99.90
13742;DHT22;8461;52.356;10.704;2022-12-29T13:30:28;10.50;99.90
13742;DHT22;8461;52.356;10.704;2022-12-29T13:35:42;10.50;99.90
13742;DHT22;8461;52.356;10.704;2022-12-29T13:40:56;10.50;99.90
13742;DHT22;8461;52.356;10.704;2022-12-29T13:43:25;10.50;99.90
13742;DHT22;8461;52.356;10.704;2022-12-29T13:46:07;10.50;99.90
13742;DHT22;8461;52.356;10.704;2022-12-29T13:48:57;10.50;99.90
13742;DHT22;8461;52.356;10.704;2022-12-29T13:51:24;10.50;99.90
13742;DHT22;8461;52.356;10.704;2022-12-29T13:59:44;10.60;99.90
13742;DHT22;8461;52.356;10.704;2022-12-29T14:05:03;10.60;99.90
13742;DHT22;8461;52.356;10.704;2022-12-29T14:07:36;10.50;99.90
13742;DHT22;8461;52.356;10.704;2022-12-29T14:10:03;10.50;99.90
13742;DHT22;8461;52.356;10.704;2022-12-29T14:12:32;10.50;99.90
13742;DHT22;8461;52.356;10.704;2022-12-29T14:17:37;10.50;99.90
13742;DHT22;8461;52.356;10.704;2022-12-29T14:20:15;10.50;99.90
13742;DHT22;8461;52.356;10.704;2022-12-29T14:23:00;10.50;99.90
13742;DHT22;8461;52.356;10.704;2022-12-29T14:25:58;10.50;99.90
13742;DHT22;8461;52.356;10.704;2022-12-29T14:28:26;10.50;99.90
13742;DHT22;8461;52.356;10.704;2022-12-29T14:31:01;10.50;99.90
13742;DHT22;8461;52.356;10.704;2022-12-29T14:33:32;10.50;99.90
13742;DHT22;8461;52.356;10.704;2022-12-29T14:36:21;10.50;99.90
13742;DHT22;8461;52.356;10.704;2022-12-29T14:38:50;10.50;99.90
13742;DHT22;8461;52.356;10.704;2022-12-29T14:41:32;10.60;99.90
13742;DHT22;8461;52.356;10.704;2022-12-29T14:49:30;10.80;99.90
13742;DHT22;8461;52.356;10.704;2022-12-29T14:52:25;10.80;99.90
13742;DHT22;8461;52.356;10.704;2022-12-29T14:54:54;10.80;99.90
13742;DHT22;8461;52.356;10.704;2022-12-29T14:57:49;10.80;99.90
13742;DHT22;8461;52.356;10.704;2022-12-29T15:00:26;10.80;99.90
13742;DHT22;8461;52.356;10.704;2022-12-29T15:03:45;10.80;99.90
13742;DHT22;8461;52.356;10.704;2022-12-29T15:06:08;10.80;99.90
13742;DHT22;8461;52.356;10.704;2022-12-29T15:08:42;10.70;99.90
13742;DHT22;8461;52.356;10.704;2022-12-29T15:11:18;10.70;99.90
13742;DHT22;8461;52.356;10.704;2022-12-29T15:13:44;10.70;99.90
13742;DHT22;8461;52.356;10.704;2022-12-29T15:16:43;10.80;99.90
13742;DHT22;8461;52.356;10.704;2022-12-29T15:19:24;10.90;99.90
13742;DHT22;8461;52.356;10.704;2022-12-29T15:21:50;10.80;99.90
13742;DHT22;8461;52.356;10.704;2022-12-29T15:24:17;10.70;99.90
13742;DHT22;8461;52.356;10.704;2022-12-29T15:26:46;10.70;99.90
13742;DHT22;8461;52.356;10.704;2022-12-29T15:29:33;10.70;99.90
13742;DHT22;8461;52.356;10.704;2022-12-29T15:32:15;10.70;99.90
13742;DHT22;8461;52.356;10.704;2022-12-29T15:34:46;10.70;99.90
13742;DHT22;8461;52.356;10.704;2022-12-29T15:37:22;10.70;99.90
13742;DHT22;8461;52.356;10.704;2022-12-29T15:39:49;10.70;99.90
13742;DHT22;8461;52.356;10.704;2022-12-29T15:45:12;10.60;99.90
13742;DHT22;8461;52.356;10.704;2022-12-29T15:47:40;10.60;99.90
13742;DHT22;8461;52.356;10.704;2022-12-29T15:52:53;10.40;99.90
13742;DHT22;8461;52.356;10.704;2022-12-29T15:55:31;10.30;99.90
13742;DHT22;8461;52.356;10.704;2022-12-29T15:57:59;10.20;99.90
13742;DHT22;8461;52.356;10.704;2022-12-29T16:00:28;10.20;99.90
13742;DHT22;8461;52.356;10.704;2022-12-29T16:02:55;10.20;99.90
13742;DHT22;8461;52.356;10.704;2022-12-29T16:05:21;10.20;99.90
13742;DHT22;8461;52.356;10.704;2022-12-29T16:07:55;10.30;99.90
13742;DHT22;8461;52.356;10.704;2022-12-29T16:10:39;10.30;99.90
13742;DHT22;8461;52.356;10.704;2022-12-29T16:13:34;10.40;99.90
13742;DHT22;8461;52.356;10.704;2022-12-29T16:16:06;10.40;99.90
13742;DHT22;8461;52.356;10.704;2022-12-29T16:18:36;10.30;99.90
13742;DHT22;8461;52.356;10.704;2022-12-29T16:21:04;10.30;99.90
13742;DHT22;8461;52.356;10.704;2022-12-29T16:23:31;10.30;99.90
13742;DHT22;8461;52.356;10.704;2022-12-29T16:25:57;10.30;99.90
13742;DHT22;8461;52.356;10.704;2022-12-29T16:28:27;10.30;99.90
13742;DHT22;8461;52.356;10.704;2022-12-29T16:30:59;10.30;99.90
13742;DHT22;8461;52.356;10.704;2022-12-29T16:33:44;10.30;99.90
13742;DHT22;8461;52.356;10.704;2022-12-29T16:36:26;10.30;99.90
13742;DHT22;8461;52.356;10.704;2022-12-29T16:41:49;9.90;99.90
13742;DHT22;8461;52.356;10.704;2022-12-29T16:44:29;9.70;99.90
13742;DHT22;8461;52.356;10.704;2022-12-29T16:49:37;9.60;99.90
13742;DHT22;8461;52.356;10.704;2022-12-29T16:52:19;9.60;99.90
13742;DHT22;8461;52.356;10.704;2022-12-29T16:54:57;9.60;99.90
13742;DHT22;8461;52.356;10.704;2022-12-29T16:57:27;9.60;99.90
13742;DHT22;8461;52.356;10.704;2022-12-29T16:59:57;9.50;99.90
13742;DHT22;8461;52.356;10.704;2022-12-29T17:02:26;9.50;99.90
13742;DHT22;8461;52.356;10.704;2022-12-29T17:04:52;9.50;99.90
13742;DHT22;8461;52.356;10.704;2022-12-29T17:07:23;9.50;99.90
13742;DHT22;8461;52.356;10.704;2022-12-29T17:09:49;9.50;99.90
13742;DHT22;8461;52.356;10.704;2022-12-29T17:12:22;9.40;99.90
13742;DHT22;8461;52.356;10.704;2022-12-29T17:15:04;9.30;99.90
13742;DHT22;8461;52.356;10.704;2022-12-29T17:20:26;9.10;99.90
13742;DHT22;8461;52.356;10.704;2022-12-29T17:22:52;9.10;99.90
13742;DHT22;8461;52.356;10.704;2022-12-29T17:25:32;9.10;99.90
13742;DHT22;8461;52.356;10.704;2022-12-29T17:28:00;9.10;99.90
13742;DHT22;8461;52.356;10.704;2022-12-29T17:30:28;9.20;99.90
13742;DHT22;8461;52.356;10.704;2022-12-29T17:33:15;9.20;99.90
13742;DHT22;8461;52.356;10.704;2022-12-29T17:35:42;9.40;99.90
13742;DHT22;8461;52.356;10.704;2022-12-29T17:40:42;9.40;99.90
13742;DHT22;8461;52.356;10.704;2022-12-29T17:43:10;9.40;99.90
13742;DHT22;8461;52.356;10.704;2022-12-29T17:45:38;9.40;99.90
13742;DHT22;8461;52.356;10.704;2022-12-29T17:48:12;9.40;99.90
13742;DHT22;8461;52.356;10.704;2022-12-29T17:50:38;9.40;99.90
13742;DHT22;8461;52.356;10.704;2022-12-29T17:53:05;9.40;99.90
13742;DHT22;8461;52.356;10.704;2022-12-29T17:55:32;9.40;99.90
13742;DHT22;8461;52.356;10.704;2022-12-29T17:57:58;9.40;99.90
13742;DHT22;8461;52.356;10.704;2022-12-29T18:00:26;9.40;99.90
13742;DHT22;8461;52.356;10.704;2022-12-29T18:02:53;9.30;99.90